Time;durP1;ratioP1;P1;durP2;ratioP2;P2;SDS_P1;SDS_P2;PMS_P1;PMS_P2;Temp;Humidity;BMP_temperature;BMP_pressure;BME280_temperature;BME280_humidity;BME280_pressure;Samples;Min_cycle;Max_cycle;Signal;HPM_P1;HPM_P2
2023/02/03 00:11:50;;;;;;;20.10;8.60;;;;;;;-2.07;100.00;101196.48;213535;1289;138953;-87
2023/02/03 00:17:51;;;;;;;25.10;9.80;;;;;;;-2.02;100.00;101202.77;213112;1292;139488;-87
2023/02/03 00:35:55;;;;;;;18.10;7.30;;;;;;;-1.87;100.00;101172.02;213996;1287;111504;-87
2023/02/03 00:41:56;;;;;;;20.50;7.30;;;;;;;-1.84;100.00;101162.35;214000;1292;112489;-87
2023/02/03 00:53:59;;;;;;;19.50;7.70;;;;;;;-1.79;100.00;101142.73;213645;1287;139269;-86
2023/02/03 01:06:01;;;;;;;44.00;19.10;;;;;;;-1.77;100.00;101105.81;214009;1291;138930;-88
2023/02/03 01:18:01;;;;;;;23.00;9.20;;;;;;;-1.73;100.00;101070.34;213169;1288;139614;-88
2023/02/03 01:30:03;;;;;;;21.10;9.70;;;;;;;-1.68;100.00;101037.92;213228;1289;138970;-87
2023/02/03 01:36:05;;;;;;;97.10;34.20;;;;;;;-1.68;100.00;101027.19;213881;1291;138757;-88
2023/02/03 01:42:06;;;;;;;44.90;19.90;;;;;;;-1.67;100.00;101018.44;213583;1289;138690;-88
2023/02/03 01:48:13;;;;;;;28.60;13.20;;;;;;;-1.66;100.00;101028.40;213281;1290;139228;-88
2023/02/03 01:54:15;;;;;;;30.10;12.10;;;;;;;-1.64;100.00;101050.94;213904;1290;112765;-87
2023/02/03 02:00:16;;;;;;;26.40;12.10;;;;;;;-1.63;100.00;101037.63;213266;1289;138928;-88
2023/02/03 02:06:23;;;;;;;32.60;12.60;;;;;;;-1.60;100.00;101036.50;213491;1289;139573;-87
2023/02/03 02:12:24;;;;;;;31.70;13.70;;;;;;;-1.57;100.00;101024.18;213812;1289;108992;-90
2023/02/03 02:18:26;;;;;;;29.20;12.70;;;;;;;-1.54;100.00;101000.79;213261;1290;139586;-89
2023/02/03 02:24:40;;;;;;;;;;;;;;;;;;;;;
2023/02/03 02:42:56;;;;;;;34.40;13.40;;;;;;;-1.45;100.00;100917.18;213811;1290;112774;-88
2023/02/03 02:48:57;;;;;;;35.20;14.20;;;;;;;-1.42;100.00;100914.88;213577;1289;139693;-88
2023/02/03 02:54:58;;;;;;;34.30;13.60;;;;;;;-1.38;100.00;100914.42;214078;1291;113935;-89
2023/02/03 03:00:59;;;;;;;24.30;11.50;;;;;;;-1.35;100.00;100910.71;213578;1289;139484;-89
2023/02/03 03:07:03;;;;;;;23.50;10.90;;;;;;;-1.31;100.00;100905.64;213341;1292;139576;-88
2023/02/03 03:19:08;;;;;;;23.60;10.80;;;;;;;-1.25;100.00;100874.48;213385;1290;139660;-88
2023/02/03 03:25:10;;;;;;;24.70;11.10;;;;;;;-1.22;100.00;100859.05;214090;1290;111208;-88
2023/02/03 03:31:14;;;;;;;25.00;10.80;;;;;;;-1.19;100.00;100846.68;213538;1289;139086;-88
2023/02/03 03:37:24;;;;;;;22.40;10.10;;;;;;;-1.13;100.00;100839.75;213413;1288;139342;-87
2023/02/03 03:55:32;;;;;;;24.40;8.70;;;;;;;-1.04;100.00;100808.63;214026;1292;111411;-87
2023/02/03 04:07:28;;;;;;;;;;;;;;;;;;;;;
2023/02/03 04:19:31;;;;;;;21.60;8.40;;;;;;;-0.91;100.00;100761.48;213251;1289;139716;-88
2023/02/03 04:25:31;;;;;;;19.80;8.20;;;;;;;-0.88;100.00;100756.80;213666;1292;139522;-88
2023/02/03 04:31:33;;;;;;;18.20;7.40;;;;;;;-0.84;100.00;100752.08;213423;1293;138982;-89
2023/02/03 04:37:34;;;;;;;19.80;9.00;;;;;;;-0.82;100.00;100735.75;213298;1293;140407;-88
2023/02/03 04:43:33;;;;;;;;;;;;;;;;;;;;;
2023/02/03 04:55:37;;;;;;;20.00;8.80;;;;;;;-0.76;100.00;100683.55;213713;1293;138704;-88
2023/02/03 05:01:38;;;;;;;22.60;8.80;;;;;;;-0.74;100.00;100666.65;213488;1287;141934;-88
2023/02/03 05:07:39;;;;;;;23.70;9.20;;;;;;;-0.72;100.00;100660.50;213494;1292;139150;-89
2023/02/03 05:13:40;;;;;;;25.20;10.80;;;;;;;-0.68;100.00;100654.06;213749;1293;111847;-88
2023/02/03 05:19:42;;;;;;;23.10;9.60;;;;;;;-0.64;100.00;100639.71;214227;1292;141013;-90
2023/02/03 05:25:43;;;;;;;28.50;9.70;;;;;;;-0.62;100.00;100628.59;214096;1292;111976;-88
2023/02/03 05:31:43;;;;;;;;;;;;;;;;;;;;;
2023/02/03 05:37:45;;;;;;;24.80;10.20;;;;;;;-0.54;100.00;100605.31;213536;1293;138914;-88
2023/02/03 05:43:46;;;;;;;26.80;9.80;;;;;;;-0.50;100.00;100589.72;214138;1290;139183;-88
2023/02/03 05:49:40;;;;;;;23.00;10.40;;;;;;;-0.46;100.00;100573.96;213309;1290;138944;-88
2023/02/03 05:55:42;;;;;;;22.20;9.70;;;;;;;-0.41;100.00;100563.81;213823;1292;139725;-89
2023/02/03 06:01:43;;;;;;;25.80;12.40;;;;;;;-0.37;100.00;100557.88;213739;1299;139536;-90
2023/02/03 06:07:40;;;;;;;23.10;10.50;;;;;;;-0.34;100.00;100545.85;213514;1289;139506;-90
2023/02/03 06:19:42;;;;;;;25.90;11.90;;;;;;;-0.25;100.00;100536.45;213352;1297;139418;-88
2023/02/03 06:25:36;;;;;;;;;;;;;;;;;;;;;
2023/02/03 06:37:40;;;;;;;29.10;13.10;;;;;;;-0.09;100.00;100480.09;213517;1287;139134;-86
2023/02/03 06:43:40;;;;;;;25.60;12.40;;;;;;;-0.05;100.00;100451.73;214077;1292;138911;-87
2023/02/03 06:49:41;;;;;;;27.10;12.50;;;;;;;0.02;100.00;100435.67;214589;1292;139799;-88
2023/02/03 06:55:42;;;;;;;28.80;13.50;;;;;;;0.07;100.00;100415.80;214289;1288;138594;-88
2023/02/03 07:01:43;;;;;;;30.20;13.60;;;;;;;0.12;100.00;100394.72;213868;1292;139170;-86
2023/02/03 07:07:36;;;;;;;;;;;;;;;;;;;;;
2023/02/03 07:13:44;;;;;;;36.20;19.00;;;;;;;0.19;100.00;100356.02;213792;1289;140170;-91
2023/02/03 07:19:47;;;;;;;37.80;16.60;;;;;;;0.24;100.00;100340.95;213295;1289;138634;-91
2023/02/03 07:25:48;;;;;;;30.90;16.00;;;;;;;0.27;100.00;100318.34;213959;1289;113162;-90
2023/02/03 07:31:50;;;;;;;35.40;17.30;;;;;;;0.31;100.00;100292.48;213455;1289;140226;-91
2023/02/03 07:43:52;;;;;;;;;;;;;;;;;;;;;
2023/02/03 07:49:54;;;;;;;32.10;16.40;;;;;;;0.46;100.00;100251.18;213398;1288;139044;-91
2023/02/03 07:55:55;;;;;;;34.60;16.20;;;;;;;0.50;100.00;100230.04;214292;1288;112241;-90
2023/02/03 08:01:56;;;;;;;29.00;16.40;;;;;;;0.54;100.00;100205.18;213889;1292;139013;-91
2023/02/03 08:07:50;;;;;;;27.50;14.30;;;;;;;0.58;100.00;100179.89;213468;1289;139074;-91
2023/02/03 08:13:44;;;;;;;27.00;14.00;;;;;;;0.62;100.00;100168.27;213884;1288;138553;-91
2023/02/03 08:19:45;;;;;;;27.10;14.00;;;;;;;0.65;100.00;100161.14;213625;1288;138848;-89
2023/02/03 08:25:46;;;;;;;21.20;11.10;;;;;;;0.67;100.00;100142.64;214068;1291;138683;-90
2023/02/03 08:31:49;;;;;;;23.50;12.00;;;;;;;0.68;100.00;100121.35;213988;1292;139714;-91
2023/02/03 08:37:50;;;;;;;19.30;11.30;;;;;;;0.71;100.00;100097.02;213217;1292;138975;-90
2023/02/03 08:43:43;;;;;;;;;;;;;;;;;;;;;
2023/02/03 08:49:52;;;;;;;21.40;11.10;;;;;;;0.75;100.00;100059.28;214475;1287;139147;-90
2023/02/03 08:55:55;;;;;;;23.20;12.20;;;;;;;0.77;100.00;100042.52;213895;1289;139482;-89
2023/02/03 09:01:44;;;;;;;26.00;14.20;;;;;;;0.77;100.00;100025.86;213776;1292;140300;-89
2023/02/03 09:07:44;;;;;;;21.80;11.60;;;;;;;0.78;100.00;100009.89;213485;1292;139197;-91
2023/02/03 09:13:47;;;;;;;24.90;13.50;;;;;;;0.80;100.00;99997.45;214127;1287;139069;-91
2023/02/03 09:19:47;;;;;;;23.10;12.30;;;;;;;0.83;100.00;99983.73;213311;1292;138783;-92
2023/02/03 09:25:37;;;;;;;24.00;11.40;;;;;;;0.84;100.00;99960.06;213946;1293;138605;-93
2023/02/03 09:31:41;;;;;;;24.30;13.10;;;;;;;0.86;100.00;99930.61;213904;1287;138595;-89
2023/02/03 09:37:42;;;;;;;22.20;12.10;;;;;;;0.89;100.00;99897.30;213179;1289;138888;-86
2023/02/03 09:43:47;;;;;;;22.70;12.70;;;;;;;0.93;100.00;99880.20;213840;1289;140249;-85
2023/02/03 09:49:54;;;;;;;24.10;12.50;;;;;;;0.98;100.00;99856.70;213286;1290;138604;-85
2023/02/03 09:56:10;;;;;;;22.20;11.90;;;;;;;1.00;100.00;99827.60;214044;1289;138375;-83
2023/02/03 10:20:56;;;;;;;;;;;;;;;;;;;;;
2023/02/03 10:26:38;;;;;;;;;;;;;;;0.98;100.00;99699.36;213460;1290;140376;-83
2023/02/03 10:38:46;;;;;;;25.40;12.90;;;;;;;1.01;100.00;99653.34;213556;1287;139938;-82
2023/02/03 10:44:48;;;;;;;27.30;14.80;;;;;;;1.04;100.00;99623.48;214206;1290;98074;-84
2023/02/03 10:57:05;;;;;;;25.90;12.90;;;;;;;1.14;100.00;99581.59;213535;1287;139064;-85
2023/02/03 11:03:03;;;;;;;25.90;13.10;;;;;;;1.19;100.00;99561.94;214214;1290;97984;-86
2023/02/03 11:09:04;;;;;;;26.50;14.50;;;;;;;1.26;100.00;99541.71;213594;1289;138680;-87
2023/02/03 11:15:06;;;;;;;29.10;13.80;;;;;;;1.34;100.00;99530.84;214057;1286;99271;-87
2023/02/03 11:21:12;;;;;;;30.20;13.40;;;;;;;1.42;100.00;99507.88;213551;1292;138548;-89
2023/02/03 11:27:14;;;;;;;36.80;16.10;;;;;;;1.51;100.00;99490.58;213711;1287;139129;-89
2023/02/03 11:39:34;;;;;;;31.00;16.60;;;;;;;1.78;100.00;99447.41;213962;1292;139593;-89
2023/02/03 11:45:33;;;;;;;34.70;18.10;;;;;;;1.89;100.00;99438.91;214118;1293;111341;-89
2023/02/03 11:51:41;;;;;;;39.70;22.30;;;;;;;2.01;100.00;99432.48;214348;1289;138232;-92
2023/02/03 11:57:50;;;;;;;30.60;16.80;;;;;;;2.11;100.00;99411.95;213797;1289;140320;-90
2023/02/03 12:04:06;;;;;;;30.60;14.60;;;;;;;2.23;100.00;99411.41;214119;1290;111643;-90
2023/02/03 12:10:09;;;;;;;24.30;11.30;;;;;;;2.41;100.00;99400.84;213932;1287;138912;-90
2023/02/03 12:16:07;;;;;;;19.20;9.90;;;;;;;2.62;100.00;99403.38;214628;1291;112530;-88
2023/02/03 12:34:29;;;;;;;;;;;;;;;;;;;;;
2023/02/03 12:40:47;;;;;;;18.30;7.10;;;;;;;3.57;100.00;99374.15;213815;1287;138808;-92
2023/02/03 12:53:08;;;;;;;11.70;3.70;;;;;;;3.74;100.00;99381.29;214592;1290;110999;-93
2023/02/03 12:59:22;;;;;;;8.00;3.10;;;;;;;3.79;100.00;99390.02;214523;1291;138964;-92
2023/02/03 13:05:38;;;;;;;10.50;2.60;;;;;;;3.91;100.00;99389.41;214998;1287;112714;-91
2023/02/03 13:17:52;;;;;;;11.00;2.90;;;;;;;3.92;100.00;99400.55;213882;1286;139969;-91
2023/02/03 13:23:53;;;;;;;9.20;2.60;;;;;;;3.87;100.00;99406.52;214295;1289;138570;-89
2023/02/03 13:30:05;;;;;;;12.40;3.20;;;;;;;3.84;100.00;99405.81;213922;1289;138644;-89
2023/02/03 13:36:25;;;;;;;9.20;3.00;;;;;;;3.84;100.00;99407.15;214277;1290;138542;-89
2023/02/03 13:54:32;;;;;;;18.40;3.80;;;;;;;3.93;100.00;99455.24;214178;1289;138713;-90
2023/02/03 14:00:38;;;;;;;22.10;4.90;;;;;;;3.96;100.00;99450.95;213649;1292;138750;-90
2023/02/03 14:12:57;;;;;;;29.50;7.50;;;;;;;3.96;100.00;99469.38;214282;1287;138685;-89
2023/02/03 14:25:13;;;;;;;18.40;4.10;;;;;;;3.86;100.00;99474.15;213816;1290;138693;-89
2023/02/03 14:31:16;;;;;;;15.30;4.30;;;;;;;3.80;100.00;99484.51;214345;1289;138697;-89
2023/02/03 14:37:16;;;;;;;17.10;4.90;;;;;;;3.74;100.00;99483.44;213912;1288;138696;-88
2023/02/03 14:43:29;;;;;;;17.90;5.20;;;;;;;3.70;100.00;99480.99;214151;1287;138505;-90
2023/02/03 14:49:39;;;;;;;21.70;6.00;;;;;;;3.70;100.00;99474.39;213757;1286;139380;-89
2023/02/03 15:02:03;;;;;;;22.80;5.10;;;;;;;3.74;100.00;99495.88;214058;1287;140146;-89
2023/02/03 15:08:16;;;;;;;28.00;6.40;;;;;;;3.77;100.00;99511.72;213685;1290;138649;-89
2023/02/03 15:26:16;;;;;;;30.80;8.80;;;;;;;3.93;100.00;99533.94;214046;1289;139272;-89
2023/02/03 15:32:25;;;;;;;33.20;8.80;;;;;;;3.99;100.00;99538.20;214062;1287;140140;-87
2023/02/03 15:44:33;;;;;;;39.30;9.70;;;;;;;4.06;100.00;99571.18;214025;1292;138495;-89
2023/02/03 15:50:33;;;;;;;;;;;;;;;;;;;;;
2023/02/03 15:56:36;;;;;;;24.00;5.80;;;;;;;4.10;100.00;99567.39;213315;1289;139170;-89
2023/02/03 16:08:35;;;;;;;;;;;;;;;;;;;;;
2023/02/03 16:14:37;;;;;;;16.80;3.90;;;;;;;4.09;100.00;99578.73;214067;1287;138722;-86
2023/02/03 16:20:50;;;;;;;16.10;3.70;;;;;;;4.07;100.00;99575.81;213406;1290;138552;-87
2023/02/03 16:26:54;;;;;;;13.60;4.00;;;;;;;4.06;100.00;99578.35;213733;1287;139355;-86
2023/02/03 16:57:15;;;;;;;14.90;3.90;;;;;;;4.09;100.00;99605.73;212668;1293;138643;-88
2023/02/03 17:03:16;;;;;;;31.00;5.50;;;;;;;4.11;100.00;99603.99;214097;1291;138998;-87
2023/02/03 17:09:15;;;;;;;;;;;;;;;;;;;;;
2023/02/03 17:15:16;;;;;;;15.30;3.70;;;;;;;4.14;100.00;99608.80;214071;1287;139003;-88
2023/02/03 17:21:18;;;;;;;21.40;5.00;;;;;;;4.15;100.00;99610.30;213553;1287;138991;-87
2023/02/03 17:27:19;;;;;;;22.30;4.80;;;;;;;4.16;100.00;99616.08;213670;1287;140579;-85
2023/02/03 17:45:22;;;;;;;32.20;16.30;;;;;;;4.22;100.00;99632.09;213858;1290;138374;-86
2023/02/03 17:51:16;;;;;;;;;;;;;;;;;;;;;
2023/02/03 17:57:08;;;;;;;41.00;16.30;;;;;;;4.27;100.00;99645.11;213496;1292;138454;-85
2023/02/03 18:03:10;;;;;;;24.90;7.60;;;;;;;4.29;100.00;99654.50;213886;1292;138526;-87
2023/02/03 18:15:12;;;;;;;25.90;10.50;;;;;;;4.33;100.00;99661.75;214227;1288;138386;-85
2023/02/03 18:21:13;;;;;;;22.00;5.60;;;;;;;4.34;100.00;99669.02;213653;1288;138713;-85
2023/02/03 18:27:17;;;;;;;23.50;7.20;;;;;;;4.36;100.00;99670.08;213513;1288;138339;-86
2023/02/03 18:33:18;;;;;;;14.70;5.00;;;;;;;4.37;100.00;99673.67;214083;1288;138526;-84
2023/02/03 18:39:17;;;;;;;;;;;;;;;;;;;;;
2023/02/03 18:45:19;;;;;;;19.10;5.00;;;;;;;4.39;100.00;99677.86;215210;1287;139216;-86
2023/02/03 18:51:20;;;;;;;16.80;5.70;;;;;;;4.41;100.00;99682.80;213787;1291;139107;-86
2023/02/03 18:57:14;;;;;;;19.40;6.40;;;;;;;4.42;100.00;99682.29;213717;1286;139415;-86
2023/02/03 19:09:18;;;;;;;16.80;4.90;;;;;;;4.45;100.00;99676.04;213552;1290;139698;-86
2023/02/03 19:15:18;;;;;;;22.60;5.20;;;;;;;4.46;100.00;99677.79;214037;1288;138519;-85
2023/02/03 19:21:19;;;;;;;18.70;5.40;;;;;;;4.48;100.00;99680.01;213738;1290;140072;-86
2023/02/03 19:27:20;;;;;;;22.20;4.60;;;;;;;4.50;100.00;99685.13;213540;1289;140624;-85
2023/02/03 19:45:23;;;;;;;7.70;2.20;;;;;;;4.42;100.00;99706.09;215016;1288;138606;-86
2023/02/03 19:57:25;;;;;;;8.00;2.40;;;;;;;4.36;100.00;99721.36;213631;1287;138992;-85
2023/02/03 20:03:26;;;;;;;19.80;8.90;;;;;;;4.33;100.00;99721.20;214373;1287;138311;-86
2023/02/03 20:09:27;;;;;;;18.30;8.40;;;;;;;4.30;100.00;99726.27;214370;1287;138962;-84
2023/02/03 20:15:28;;;;;;;13.60;5.40;;;;;;;4.28;100.00;99723.66;214039;1290;138471;-85
2023/02/03 20:21:29;;;;;;;26.40;12.00;;;;;;;4.27;100.00;99729.62;215798;1287;139040;-86
2023/02/03 20:33:32;;;;;;;16.30;6.20;;;;;;;4.23;100.00;99732.41;214250;1289;138486;-85
2023/02/03 20:39:33;;;;;;;13.20;4.40;;;;;;;4.22;100.00;99729.49;213700;1292;138442;-85
2023/02/03 20:45:36;;;;;;;11.50;2.60;;;;;;;4.19;100.00;99722.80;214039;1289;139031;-83
2023/02/03 20:51:36;;;;;;;13.00;4.80;;;;;;;4.15;100.00;99719.05;213586;1287;139050;-85
2023/02/03 20:57:37;;;;;;;7.90;3.50;;;;;;;4.12;100.00;99737.34;213635;1289;138643;-86
2023/02/03 21:15:39;;;;;;;7.40;1.90;;;;;;;3.95;100.00;99757.83;214084;1291;138286;-85
2023/02/03 21:21:41;;;;;;;6.70;1.80;;;;;;;3.90;100.00;99766.71;213920;1291;138259;-84
2023/02/03 21:27:41;;;;;;;9.30;1.90;;;;;;;3.85;100.00;99776.52;213282;1289;138384;-85
2023/02/03 21:33:40;;;;;;;;;;;;;;;;;;;;;
2023/02/03 21:39:42;;;;;;;5.50;1.70;;;;;;;3.69;100.00;99787.20;213334;1290;138371;-85
2023/02/03 21:51:31;;;;;;;2.80;1.00;;;;;;;3.49;100.00;99794.93;213749;1292;138759;-84
2023/02/03 21:57:39;;;;;;;2.70;1.00;;;;;;;3.41;100.00;99790.52;213897;1288;138232;-83
2023/02/03 22:03:50;;;;;;;3.20;1.10;;;;;;;3.36;100.00;99798.66;213952;1293;138370;-84
2023/02/03 22:09:50;;;;;;;3.80;1.40;;;;;;;3.30;100.00;99807.11;209591;1288;5362935;-84
2023/02/03 22:15:52;;;;;;;4.60;1.90;;;;;;;3.26;100.00;99824.26;213739;1291;138368;-84
2023/02/03 22:28:19;;;;;;;2.70;1.10;;;;;;;3.17;100.00;99830.19;213065;1289;138706;-84
2023/02/03 22:34:04;;;;;;;4.80;1.60;;;;;;;3.13;100.00;99836.45;213496;1291;138748;-84
2023/02/03 22:40:05;;;;;;;3.80;1.60;;;;;;;3.09;100.00;99842.30;213408;1293;138420;-84
2023/02/03 22:46:06;;;;;;;5.30;1.60;;;;;;;3.04;100.00;99852.78;214006;1288;138195;-83
2023/02/03 22:52:05;;;;;;;;;;;;;;;;;;;;;
2023/02/03 22:58:08;;;;;;;7.10;2.50;;;;;;;2.92;100.00;99903.64;214469;1291;139986;-83
2023/02/03 23:04:10;;;;;;;4.80;1.90;;;;;;;2.89;100.00;99916.27;213933;1301;138293;-84
2023/02/03 23:16:13;;;;;;;5.20;2.50;;;;;;;2.83;100.00;99951.69;214176;1292;138133;-85
2023/02/03 23:40:23;;;;;;;18.90;11.10;;;;;;;1.45;100.00;100144.95;214454;1289;139015;-85
2023/02/03 23:46:24;;;;;;;18.90;11.00;;;;;;;1.19;100.00;100179.58;214489;1288;138844;-86
2023/02/03 23:52:26;;;;;;;17.20;8.50;;;;;;;0.99;100.00;100230.79;214196;1292;138611;-86
2023/02/03 23:58:27;;;;;;;14.10;7.60;;;;;;;0.81;100.00;100263.73;213496;1288;138586;-85
